Time;durP1;ratioP1;P1;durP2;ratioP2;P2;SDS_P1;SDS_P2;PMS_P1;PMS_P2;Temp;Humidity;BMP_temperature;BMP_pressure;BME280_temperature;BME280_humidity;BME280_pressure;Samples;Min_cycle;Max_cycle;Signal;HPM_P1;HPM_P2
2021/11/11 05:04:53;;;;;;;;;;;;;;;;;;;;;
2021/11/11 05:07:52;;;;;;;;;;;;;;;;;;;;;
2021/11/11 05:10:48;;;;;;;;;;;;;;;;;;;;;
2021/11/11 05:13:57;;;;;;;;;;;;;;;;;;;;;
2021/11/11 05:17:04;;;;;;;;;;;8.70;99.90;;;;;;4815886;29;19924;-96
2021/11/11 05:55:54;;;;;;;;;;;;;;;;;;;;;
2021/11/11 06:08:10;;;;;;;;;;;8.50;99.90;;;;;;4729241;29;20392;-95
2021/11/11 06:11:08;;;;;;;;;;;8.50;99.90;;;;;;4803839;29;20385;-95
2021/11/11 06:14:06;;;;;;;;;;;;;;;;;;;;;
2021/11/11 06:23:08;;;;;;;;;;;8.50;99.90;;;;;;4899769;28;19974;-94
2021/11/11 06:26:01;;;;;;;;;;;8.50;99.90;;;;;;4922484;29;19915;-94
2021/11/11 06:32:21;;;;;;;;;;;8.40;99.90;;;;;;4871499;29;19912;-94
2021/11/11 07:22:14;;;;;;;;;;;8.10;99.90;;;;;;4994198;23;19954;-93
2021/11/11 07:48:01;;;;;;;;;;;8.10;99.90;;;;;;5517321;23;19926;-94
2021/11/11 07:50:33;;;;;;;;;;;8.10;99.90;;;;;;4956972;28;19911;-96
2021/11/11 07:53:00;;;;;;;;;;;8.10;99.90;;;;;;4955760;28;19944;-93
2021/11/11 07:55:26;;;;;;;;;;;8.00;99.90;;;;;;4956155;28;19911;-94
2021/11/11 07:57:52;;;;;;;;;;;8.00;99.90;;;;;;4956244;28;19918;-93
2021/11/11 08:00:18;;;;;;;;;;;8.00;99.90;;;;;;4956942;28;20382;-93
2021/11/11 08:02:44;;;;;;;;;;;7.90;99.90;;;;;;4957717;28;20302;-92
2021/11/11 08:05:10;;;;;;;;;;;7.80;99.90;;;;;;4958972;28;20406;-93
2021/11/11 08:07:36;;;;;;;;;;;7.80;99.90;;;;;;4959597;28;19910;-93
2021/11/11 08:10:02;;;;;;;;;;;7.70;99.90;;;;;;4959871;28;19960;-93
2021/11/11 08:12:28;;;;;;;;;;;7.70;99.90;;;;;;4966070;28;19953;-93
2021/11/11 08:14:54;;;;;;;;;;;7.70;99.90;;;;;;4958892;28;19910;-92
2021/11/11 08:17:21;;;;;;;;;;;7.60;99.90;;;;;;4971062;28;19940;-93
2021/11/11 08:19:47;;;;;;;;;;;7.60;99.90;;;;;;4960857;28;19961;-93
2021/11/11 08:22:14;;;;;;;;;;;7.70;99.90;;;;;;4959088;28;19910;-92
2021/11/11 08:24:43;;;;;;;;;;;7.80;99.90;;;;;;4958619;28;19910;-92
2021/11/11 08:27:12;;;;;;;;;;;7.90;99.90;;;;;;4969383;28;19918;-93
2021/11/11 08:29:38;;;;;;;;;;;8.00;99.90;;;;;;4969314;28;19949;-93
2021/11/11 08:32:04;;;;;;;;;;;8.10;99.90;;;;;;4959051;28;19910;-93
2021/11/11 08:34:29;;;;;;;;;;;8.20;99.90;;;;;;4958558;28;19918;-93
2021/11/11 08:36:58;;;;;;;;;;;8.20;99.90;;;;;;4958446;28;19941;-92
2021/11/11 08:39:23;;;;;;;;;;;8.20;99.90;;;;;;4958042;28;19914;-93
2021/11/11 08:41:51;;;;;;;;;;;8.20;99.90;;;;;;4963067;28;19910;-93
2021/11/11 08:44:19;;;;;;;;;;;8.20;99.90;;;;;;4962121;28;19914;-92
2021/11/11 11:12:24;;;;;;;;;;;13.80;99.90;;;;;;4994937;23;19932;-71
2021/11/11 11:14:50;;;;;;;;;;;13.90;99.90;;;;;;4974546;28;20322;-71
2021/11/11 11:17:15;;;;;;;;;;;14.00;99.90;;;;;;4992038;28;19963;-70
2021/11/11 11:19:41;;;;;;;;;;;14.00;99.90;;;;;;4992237;28;19994;-78
2021/11/11 11:22:06;;;;;;;;;;;14.10;99.90;;;;;;4992229;28;19910;-71
2021/11/11 11:24:33;;;;;;;;;;;14.20;99.90;;;;;;4991762;28;19910;-71
2021/11/11 11:27:03;;;;;;;;;;;14.20;99.90;;;;;;4991571;28;19917;-71
2021/11/11 11:29:35;;;;;;;;;;;14.30;99.90;;;;;;4980033;28;19918;-71
2021/11/11 11:32:10;;;;;;;;;;;14.40;99.90;;;;;;4999577;28;19949;-71
2021/11/11 11:34:37;;;;;;;;;;;14.40;99.90;;;;;;4984423;28;20191;-71
2021/11/11 11:37:07;;;;;;;;;;;14.50;99.90;;;;;;5002536;28;20029;-71
2021/11/11 11:39:35;;;;;;;;;;;14.60;99.90;;;;;;5001033;28;19914;-71
2021/11/11 11:42:08;;;;;;;;;;;14.70;99.90;;;;;;4986780;28;19925;-71
2021/11/11 11:44:34;;;;;;;;;;;14.80;99.90;;;;;;4999774;28;20660;-71
2021/11/11 11:50:02;;;;;;;;;;;15.00;99.90;;;;;;4972909;28;19941;-71
2021/11/11 11:52:29;;;;;;;;;;;15.00;99.90;;;;;;4992359;28;20136;-71
2021/11/11 11:57:44;;;;;;;;;;;15.10;99.90;;;;;;4991637;28;20016;-71
2021/11/11 12:00:58;;;;;;;;;;;15.10;99.90;;;;;;4994737;28;19917;-72
2021/11/11 12:06:23;;;;;;;;;;;15.30;99.90;;;;;;4991916;28;19933;-71
2021/11/11 12:13:52;;;;;;;;;;;15.30;99.90;;;;;;4991810;28;19960;-71
2021/11/11 12:39:32;;;;;;;;;;;16.00;99.90;;;;;;5002856;28;20346;-72
2021/11/11 12:41:58;;;;;;;;;;;16.00;99.90;;;;;;4998172;28;19949;-71
2021/11/11 12:44:24;;;;;;;;;;;15.90;99.90;;;;;;4998673;28;19910;-71
2021/11/11 12:46:50;;;;;;;;;;;15.90;99.90;;;;;;4995746;28;20393;-71
2021/11/11 12:49:24;;;;;;;;;;;16.00;99.90;;;;;;4996972;28;19949;-72
2021/11/11 12:52:08;;;;;;;;;;;16.10;99.90;;;;;;4996819;28;19981;-71
2021/11/11 12:54:35;;;;;;;;;;;16.40;99.90;;;;;;4996627;28;19905;-71
2021/11/11 12:57:02;;;;;;;;;;;16.80;99.90;;;;;;4995019;28;20370;-70
2021/11/11 12:59:31;;;;;;;;;;;17.10;99.90;;;;;;4994899;28;20021;-69
2021/11/11 13:01:59;;;;;;;;;;;17.40;99.90;;;;;;4996517;28;19910;-70
2021/11/11 13:04:26;;;;;;;;;;;17.60;99.90;;;;;;4996276;28;20286;-70
2021/11/11 13:06:59;;;;;;;;;;;17.80;99.90;;;;;;4994791;28;19910;-70
2021/11/11 13:09:24;;;;;;;;;;;18.00;99.90;;;;;;4993990;28;19914;-70
2021/11/11 13:11:52;;;;;;;;;;;18.10;99.90;;;;;;4994409;28;19922;-71
2021/11/11 13:14:19;;;;;;;;;;;18.10;99.90;;;;;;4994276;28;19982;-71
2021/11/11 13:17:04;;;;;;;;;;;18.00;99.90;;;;;;4993828;28;20013;-69
2021/11/11 13:19:31;;;;;;;;;;;18.10;99.90;;;;;;4994304;28;19913;-69
2021/11/11 13:22:02;;;;;;;;;;;18.20;99.90;;;;;;4994432;28;19910;-68
2021/11/11 14:03:51;;;;;;;;;;;16.70;99.90;;;;;;4984448;28;19910;-75
